createdAt,value
2022-11-15T00:01:36.550Z,50.47
2022-11-15T00:04:56.393Z,48.20
2022-11-15T00:08:16.756Z,50.95
2022-11-15T00:11:36.572Z,48.38
2022-11-15T00:14:56.466Z,46.75
2022-11-15T00:18:16.649Z,49.40
2022-11-15T00:21:36.704Z,46.92
2022-11-15T00:24:56.866Z,48.40
2022-11-15T00:28:16.614Z,45.15
2022-11-15T00:31:36.429Z,47.15
2022-11-15T00:34:56.215Z,45.67
2022-11-15T00:38:16.122Z,43.22
2022-11-15T00:41:35.859Z,45.83
2022-11-15T00:44:55.776Z,44.42
2022-11-15T00:48:15.496Z,47.65
2022-11-15T00:51:35.279Z,43.20
2022-11-15T00:54:55.093Z,44.78
2022-11-15T00:58:15.056Z,41.40
2022-11-15T01:01:35.069Z,39.80
2022-11-15T01:04:54.916Z,41.63
2022-11-15T01:08:16.076Z,39.38
2022-11-15T01:11:36.143Z,42.42
2022-11-15T01:14:56.095Z,45.85
2022-11-15T01:18:15.815Z,39.60
2022-11-15T01:21:35.555Z,41.38
2022-11-15T01:24:55.387Z,40.25
2022-11-15T01:28:15.357Z,40.60
2022-11-15T01:31:36.091Z,41.55
2022-11-15T01:34:55.972Z,40.53
2022-11-15T01:38:15.725Z,42.35
2022-11-15T01:41:35.552Z,38.97
2022-11-15T01:44:55.220Z,41.33
2022-11-15T01:48:15.067Z,40.50
2022-11-15T01:51:34.958Z,40.83
2022-11-15T01:55:03.067Z,37.60
2022-11-15T01:58:23.150Z,38.67
2022-11-15T02:01:43.857Z,39.05
2022-11-15T02:05:04.224Z,36.75
2022-11-15T02:08:24.290Z,36.45
2022-11-15T02:11:45.770Z,36.13
2022-11-15T02:15:07.840Z,40.30
2022-11-15T02:18:36.208Z,37.33
2022-11-15T02:22:15.679Z,36.20
2022-11-15T02:26:03.589Z,37.65
2022-11-15T02:29:50.861Z,35.72
2022-11-15T02:33:42.738Z,32.67
2022-11-15T02:37:22.173Z,35.58
2022-11-15T02:40:54.527Z,37.15
2022-11-15T02:44:25.449Z,34.90
2022-11-15T02:47:48.752Z,33.42
2022-11-15T02:51:10.021Z,35.35
2022-11-15T02:54:33.256Z,35.33
2022-11-15T02:58:07.004Z,37.20
2022-11-15T03:01:33.003Z,35.83
2022-11-15T03:05:02.315Z,34.10
2022-11-15T03:08:42.409Z,34.75
2022-11-15T03:12:13.493Z,36.72
2022-11-15T03:15:38.915Z,38.22
2022-11-15T03:19:07.650Z,34.22
2022-11-15T03:22:31.472Z,36.00
2022-11-15T03:25:54.365Z,34.90
2022-11-15T03:29:18.646Z,42.88
2022-11-15T03:32:45.359Z,35.95
2022-11-15T03:36:05.624Z,33.38
2022-11-15T03:39:27.007Z,34.58
2022-11-15T03:43:07.802Z,31.75
2022-11-15T03:46:40.865Z,36.92
2022-11-15T03:50:06.118Z,37.55
2022-11-15T03:53:26.227Z,32.38
2022-11-15T03:56:46.259Z,30.52
2022-11-15T04:00:06.536Z,32.28
2022-11-15T04:03:26.903Z,32.40
2022-11-15T04:06:46.786Z,32.83
2022-11-15T04:10:07.141Z,31.98
2022-11-15T04:13:26.936Z,29.20
2022-11-15T04:16:46.730Z,30.38
2022-11-15T04:20:10.148Z,28.88
2022-11-15T04:23:30.191Z,25.80
2022-11-15T04:26:50.356Z,31.25
2022-11-15T04:30:10.516Z,30.45
2022-11-15T04:33:30.779Z,29.45
2022-11-15T04:36:50.809Z,28.42
2022-11-15T04:40:11.049Z,28.88
2022-11-15T04:43:31.402Z,28.23
2022-11-15T04:46:51.433Z,28.38
2022-11-15T04:50:11.494Z,24.15
2022-11-15T04:53:31.931Z,25.65
2022-11-15T04:56:51.952Z,26.05
2022-11-15T05:00:14.488Z,26.20
2022-11-15T05:03:34.586Z,31.75
2022-11-15T05:06:54.954Z,27.27
2022-11-15T05:10:14.793Z,28.30
2022-11-15T05:13:34.817Z,25.95
2022-11-15T05:16:54.970Z,26.80
2022-11-15T05:20:15.108Z,27.48
2022-11-15T05:23:35.119Z,25.80
2022-11-15T05:26:54.930Z,27.67
2022-11-15T05:30:15.966Z,29.63
2022-11-15T05:33:40.715Z,28.88
2022-11-15T05:37:00.798Z,25.77
2022-11-15T05:40:20.706Z,25.92
2022-11-15T05:43:42.183Z,25.30
2022-11-15T05:47:05.128Z,25.17
2022-11-15T05:50:25.606Z,26.47
2022-11-15T05:53:46.647Z,25.73
2022-11-15T05:57:07.003Z,27.88
2022-11-15T06:00:26.879Z,27.27
2022-11-15T06:03:46.760Z,31.38
2022-11-15T06:07:06.629Z,30.42
2022-11-15T06:10:27.083Z,29.08
2022-11-15T06:13:47.136Z,29.60
2022-11-15T06:17:11.193Z,29.23
2022-11-15T06:20:31.638Z,30.45
2022-11-15T06:23:51.669Z,28.92
2022-11-15T06:27:12.368Z,31.45
2022-11-15T06:30:32.518Z,31.35
2022-11-15T06:33:52.572Z,30.15
2022-11-15T06:37:12.484Z,31.48
2022-11-15T06:40:36.128Z,28.48
2022-11-15T06:43:57.101Z,32.90
2022-11-15T06:47:16.862Z,27.85
2022-11-15T06:50:36.680Z,26.00
2022-11-15T06:53:56.634Z,29.67
2022-11-15T06:57:16.486Z,28.33
2022-11-15T07:00:36.323Z,27.13
2022-11-15T07:03:56.039Z,27.58
2022-11-15T07:07:16.016Z,27.17
2022-11-15T07:10:35.784Z,24.33
2022-11-15T07:13:55.594Z,24.33
2022-11-15T07:17:15.358Z,25.20
2022-11-15T07:20:35.326Z,21.65
2022-11-15T07:23:55.680Z,23.25
2022-11-15T07:27:15.775Z,22.88
2022-11-15T07:30:35.654Z,21.52
2022-11-15T07:33:55.583Z,24.08
2022-11-15T07:37:15.539Z,25.13
2022-11-15T07:40:35.305Z,23.92
2022-11-15T07:43:55.236Z,22.20
2022-11-15T07:47:15.002Z,24.75
2022-11-15T07:50:34.821Z,24.65
2022-11-15T07:53:54.645Z,23.02
2022-11-15T07:57:14.598Z,24.58
2022-11-15T08:00:35.360Z,22.92
2022-11-15T08:03:55.505Z,23.98
2022-11-15T08:07:15.402Z,21.73
2022-11-15T08:10:40.405Z,23.80
2022-11-15T08:14:00.684Z,22.35
2022-11-15T08:17:20.494Z,23.70
2022-11-15T08:20:41.356Z,23.90
2022-11-15T08:24:01.494Z,21.98
2022-11-15T08:27:21.368Z,23.33
2022-11-15T08:30:43.666Z,21.85
2022-11-15T08:34:04.534Z,21.08
2022-11-15T08:37:24.793Z,19.42
2022-11-15T08:40:44.766Z,21.95
2022-11-15T08:44:05.027Z,26.98
2022-11-15T08:47:25.044Z,19.92
2022-11-15T08:50:45.126Z,21.73
2022-11-15T08:54:05.091Z,22.77
2022-11-15T08:57:25.173Z,22.88
2022-11-15T09:00:45.325Z,24.23
2022-11-15T09:04:05.408Z,24.55
2022-11-15T09:07:25.740Z,24.58
2022-11-15T09:10:45.627Z,20.92
2022-11-15T09:14:05.601Z,22.60
2022-11-15T09:17:25.545Z,20.13
2022-11-15T09:20:45.341Z,21.00
2022-11-15T09:24:05.480Z,19.95
2022-11-15T09:27:29.966Z,22.10
2022-11-15T09:30:49.912Z,18.33
2022-11-15T09:34:09.845Z,18.73
2022-11-15T09:37:29.680Z,18.67
2022-11-15T09:40:57.084Z,17.90
2022-11-15T09:44:43.413Z,16.10
2022-11-15T09:48:21.809Z,17.15
2022-11-15T09:51:51.080Z,18.00
2022-11-15T09:54:55.165Z,16.58
2022-11-15T09:58:26.308Z,16.77
2022-11-15T10:01:45.018Z,17.73
2022-11-15T10:04:47.137Z,18.10
2022-11-15T10:08:21.542Z,20.10
2022-11-15T10:11:37.863Z,20.25
2022-11-15T10:14:40.426Z,19.17
2022-11-15T10:18:00.284Z,17.50
2022-11-15T10:21:31.562Z,19.02
2022-11-15T10:24:38.502Z,18.05
2022-11-15T10:27:41.467Z,17.60
2022-11-15T10:30:48.658Z,18.40
2022-11-15T10:33:50.412Z,17.05
2022-11-15T10:37:00.322Z,19.05
2022-11-15T10:40:07.807Z,16.83
2022-11-15T10:43:16.345Z,19.92
2022-11-15T10:46:45.651Z,21.42
2022-11-15T10:49:55.279Z,16.35
2022-11-15T10:52:57.107Z,17.55
2022-11-15T10:56:12.081Z,18.70
2022-11-15T10:59:19.107Z,19.40
2022-11-15T11:02:35.634Z,23.40
2022-11-15T11:05:42.512Z,17.42
2022-11-15T11:09:06.647Z,18.85
2022-11-15T11:12:11.911Z,22.40
2022-11-15T11:15:16.240Z,18.25
2022-11-15T11:18:34.479Z,22.67
2022-11-15T11:21:52.146Z,18.10
2022-11-15T11:25:31.365Z,20.42
2022-11-15T11:28:51.597Z,18.70
2022-11-15T11:32:24.357Z,18.10
2022-11-15T11:35:37.569Z,18.15
2022-11-15T11:38:49.077Z,18.17
2022-11-15T11:42:11.353Z,19.65
2022-11-15T11:45:23.822Z,17.55
2022-11-15T11:48:46.938Z,16.90
2022-11-15T11:52:03.133Z,14.65
2022-11-15T11:55:19.135Z,15.13
2022-11-15T11:58:25.529Z,17.80
2022-11-15T12:01:38.241Z,16.67
2022-11-15T12:04:43.710Z,15.87
2022-11-15T12:07:47.293Z,15.45
2022-11-15T12:10:52.925Z,20.35
2022-11-15T12:13:59.822Z,15.60
2022-11-15T12:17:01.345Z,17.17
2022-11-15T12:20:14.060Z,14.93
2022-11-15T12:23:24.467Z,15.93
2022-11-15T12:26:35.771Z,20.45
2022-11-15T12:29:50.766Z,14.75
2022-11-15T12:33:01.111Z,15.65
2022-11-15T12:36:10.119Z,14.98
2022-11-15T12:39:13.230Z,15.00
2022-11-15T12:42:14.533Z,14.38
2022-11-15T12:45:31.150Z,15.73
2022-11-15T12:48:35.487Z,14.38
2022-11-15T12:51:42.816Z,17.70
2022-11-15T12:54:44.129Z,14.75
2022-11-15T12:57:45.491Z,13.95
2022-11-15T13:00:46.973Z,14.57
2022-11-15T13:04:33.273Z,13.95
2022-11-15T13:07:40.480Z,16.55
2022-11-15T13:10:41.925Z,13.25
2022-11-15T13:13:45.657Z,14.82
2022-11-15T13:16:47.601Z,17.63
2022-11-15T13:19:53.526Z,12.43
2022-11-15T13:23:10.116Z,17.17
2022-11-15T13:26:15.045Z,12.27
2022-11-15T13:29:18.384Z,12.98
2022-11-15T13:35:24.727Z,13.75
2022-11-15T13:38:28.318Z,15.40
2022-11-15T13:41:32.892Z,11.48
2022-11-15T13:44:34.485Z,12.65
2022-11-15T13:47:35.996Z,21.70
2022-11-15T13:50:40.334Z,14.98
2022-11-15T13:53:45.623Z,10.57
2022-11-15T13:57:12.839Z,12.05
2022-11-15T14:00:26.523Z,12.45
2022-11-15T14:03:34.679Z,12.57
2022-11-15T14:06:46.769Z,13.40
2022-11-15T14:09:48.705Z,14.20
2022-11-15T14:12:53.139Z,13.30
2022-11-15T14:15:54.612Z,12.95
2022-11-15T14:18:56.088Z,14.02
2022-11-15T14:22:12.549Z,15.27
2022-11-15T14:25:13.870Z,12.65
2022-11-15T14:28:24.314Z,14.70
2022-11-15T14:31:25.638Z,14.82
2022-11-15T14:34:27.020Z,12.95
2022-11-15T14:37:30.968Z,14.90
2022-11-15T14:40:32.338Z,14.70
2022-11-15T14:43:33.664Z,13.85
2022-11-15T14:46:35.001Z,13.95
2022-11-15T14:49:36.388Z,15.82
2022-11-15T14:52:37.725Z,17.50
2022-11-15T14:55:39.284Z,14.57
2022-11-15T14:58:41.234Z,13.68
2022-11-15T15:01:42.653Z,14.57
2022-11-15T15:04:44.077Z,12.98
2022-11-15T15:07:45.884Z,13.82
2022-11-15T15:10:47.378Z,12.10
2022-11-15T15:13:48.929Z,14.43
2022-11-15T15:16:50.242Z,13.32
2022-11-15T15:19:51.591Z,12.77
2022-11-15T15:22:52.922Z,12.50
2022-11-15T15:25:54.270Z,13.85
2022-11-15T15:28:55.630Z,13.00
2022-11-15T15:31:57.005Z,13.73
2022-11-15T15:34:58.402Z,12.32
2022-11-15T15:38:00.068Z,12.52
2022-11-15T15:41:01.427Z,13.55
2022-11-15T15:44:02.762Z,15.90
2022-11-15T15:47:12.527Z,13.80
2022-11-15T15:50:28.938Z,14.45
2022-11-15T15:53:30.336Z,15.23
2022-11-15T15:56:31.671Z,14.85
2022-11-15T15:59:33.305Z,14.73
2022-11-15T16:02:39.253Z,14.80
2022-11-15T16:05:41.907Z,12.27
2022-11-15T16:09:08.193Z,14.02
2022-11-15T16:12:04.644Z,13.55
2022-11-15T16:15:06.548Z,16.35
2022-11-15T16:18:16.420Z,13.98
2022-11-15T16:21:17.784Z,15.32
2022-11-15T16:24:20.428Z,13.27
2022-11-15T16:27:22.700Z,15.27
2022-11-15T16:30:24.188Z,13.32
2022-11-15T16:33:25.597Z,14.05
2022-11-15T16:36:30.841Z,17.92
2022-11-15T16:39:33.333Z,14.20
2022-11-15T16:42:34.668Z,14.02
2022-11-15T16:45:36.301Z,14.27
2022-11-15T16:48:37.658Z,12.88
2022-11-15T16:51:39.074Z,15.35
2022-11-15T16:54:40.434Z,15.77
2022-11-15T16:57:41.800Z,13.10
2022-11-15T17:00:43.213Z,14.73
2022-11-15T17:03:44.622Z,15.02
2022-11-15T17:06:47.655Z,16.80
2022-11-15T17:09:49.063Z,16.20
2022-11-15T17:12:51.910Z,13.32
2022-11-15T17:16:10.242Z,14.52
2022-11-15T17:19:16.358Z,16.02
2022-11-15T17:22:17.712Z,13.93
2022-11-15T17:25:19.183Z,12.77
2022-11-15T17:28:20.515Z,15.20
2022-11-15T17:31:21.864Z,15.27
2022-11-15T17:34:23.200Z,13.45
2022-11-15T17:37:24.533Z,13.55
2022-11-15T17:40:25.896Z,17.52
2022-11-15T17:43:27.268Z,15.13
2022-11-15T17:46:29.429Z,12.25
2022-11-15T17:49:30.804Z,13.73
2022-11-15T17:52:32.144Z,14.00
2022-11-15T17:55:33.460Z,14.23
2022-11-15T17:58:35.252Z,12.40
2022-11-15T18:01:38.086Z,14.57
2022-11-15T18:04:39.749Z,15.40
2022-11-15T18:07:41.085Z,13.43
2022-11-15T18:10:42.497Z,12.57
2022-11-15T18:13:50.970Z,12.93
2022-11-15T18:16:53.562Z,14.23
2022-11-15T18:19:54.949Z,15.05
2022-11-15T18:22:56.308Z,13.27
2022-11-15T18:25:57.682Z,15.02
2022-11-15T18:29:03.827Z,14.77
2022-11-15T18:32:05.926Z,13.23
2022-11-15T18:35:07.457Z,12.60
2022-11-15T18:38:08.793Z,13.95
2022-11-15T18:41:11.538Z,13.35
2022-11-15T18:44:13.243Z,13.75
2022-11-15T18:47:14.583Z,13.55
2022-11-15T18:50:16.194Z,14.30
2022-11-15T18:53:17.531Z,14.90
2022-11-15T18:56:20.608Z,15.77
2022-11-15T18:59:21.952Z,15.27
2022-11-15T19:02:23.297Z,20.27
2022-11-15T19:05:24.638Z,14.15
2022-11-15T19:08:25.987Z,13.05
2022-11-15T19:11:29.007Z,12.35
2022-11-15T19:14:30.771Z,12.65
2022-11-15T19:17:32.147Z,14.32
2022-11-15T19:20:35.592Z,13.15
2022-11-15T19:23:38.783Z,14.85
2022-11-15T19:26:40.319Z,12.30
2022-11-15T19:29:41.645Z,13.15
2022-11-15T19:32:42.989Z,15.43
2022-11-15T19:35:45.213Z,15.57
2022-11-15T19:38:46.653Z,12.98
2022-11-15T19:41:48.096Z,15.25
2022-11-15T19:44:49.432Z,14.73
2022-11-15T19:47:50.813Z,16.15
2022-11-15T19:50:52.866Z,12.07
2022-11-15T19:53:59.957Z,11.63
2022-11-15T19:57:01.344Z,11.85
2022-11-15T20:00:07.267Z,12.20
2022-11-15T20:03:08.979Z,12.23
2022-11-15T20:06:12.738Z,13.00
2022-11-15T20:09:16.082Z,14.13
2022-11-15T20:15:18.681Z,13.95
2022-11-15T20:18:21.234Z,13.10
2022-11-15T20:21:22.733Z,15.10
2022-11-15T20:24:24.082Z,12.32
2022-11-15T20:27:25.976Z,14.95
2022-11-15T20:30:27.322Z,15.25
2022-11-15T20:33:28.750Z,15.75
2022-11-15T20:36:30.131Z,13.27
2022-11-15T20:39:31.467Z,12.90
2022-11-15T20:42:32.994Z,13.52
2022-11-15T20:45:34.655Z,14.25
2022-11-15T20:48:36.623Z,12.70
2022-11-15T20:51:38.146Z,13.43
2022-11-15T20:54:39.496Z,17.23
2022-11-15T20:57:40.851Z,14.68
2022-11-15T21:00:42.775Z,14.57
2022-11-15T21:03:44.106Z,12.73
2022-11-15T21:06:48.781Z,15.55
2022-11-15T21:09:50.412Z,15.40
2022-11-15T21:12:51.767Z,14.38
2022-11-15T21:15:57.059Z,14.95
2022-11-15T21:18:58.414Z,14.05
2022-11-15T21:22:00.777Z,15.70
2022-11-15T21:25:02.244Z,14.43
2022-11-15T21:28:03.673Z,16.38
2022-11-15T21:31:05.299Z,14.20
2022-11-15T21:34:06.626Z,14.52
2022-11-15T21:37:08.082Z,14.50
2022-11-15T21:40:09.989Z,14.95
2022-11-15T21:43:11.374Z,16.35
2022-11-15T21:46:12.746Z,17.42
2022-11-15T21:49:14.458Z,17.23
2022-11-15T21:52:15.794Z,15.25
2022-11-15T21:55:17.181Z,16.17
2022-11-15T21:58:19.601Z,18.83
2022-11-15T22:01:22.640Z,19.25
2022-11-15T22:04:24.129Z,17.08
2022-11-15T22:07:25.545Z,16.67
2022-11-15T22:10:26.938Z,21.08
2022-11-15T22:13:28.318Z,17.20
2022-11-15T22:16:30.390Z,21.40
2022-11-15T22:19:31.811Z,18.80
2022-11-15T22:22:33.337Z,18.23
2022-11-15T22:25:34.755Z,15.35
2022-11-15T22:28:36.410Z,20.73
2022-11-15T22:31:38.043Z,17.67
2022-11-15T22:34:39.423Z,18.13
2022-11-15T22:37:40.860Z,19.17
2022-11-15T22:40:43.514Z,19.80
2022-11-15T22:43:44.956Z,18.48
2022-11-15T22:46:46.372Z,18.02
2022-11-15T22:49:47.799Z,18.15
2022-11-15T22:52:50.017Z,19.02
2022-11-15T22:55:52.975Z,17.40
2022-11-15T23:01:56.487Z,20.17
2022-11-15T23:04:57.911Z,18.60
2022-11-15T23:07:59.347Z,19.15
2022-11-15T23:11:02.684Z,18.92
2022-11-15T23:17:05.422Z,20.58
2022-11-15T23:20:36.453Z,18.63
2022-11-15T23:23:28.976Z,17.52
2022-11-15T23:26:31.253Z,18.95
2022-11-15T23:29:33.848Z,19.98
2022-11-15T23:32:35.544Z,19.43
2022-11-15T23:35:37.016Z,19.38
2022-11-15T23:38:38.596Z,18.75
2022-11-15T23:41:40.017Z,19.80
2022-11-15T23:44:41.458Z,19.55
2022-11-15T23:47:43.708Z,22.45
2022-11-15T23:50:46.986Z,20.80
2022-11-15T23:53:48.477Z,23.52
2022-11-15T23:56:49.930Z,22.48
2022-11-15T23:59:51.363Z,23.52
